Terminal Aerodrome Forecast
Issued by NWS King Salmon, AK

Home | Current Version | Previous Version | Text Only | Print | Product List | Glossary On
Versions: 1 2 3 4 5 6 7 8 9 10 11 12 13 14 15 16 17 18 19 20 21 22 23
000
FTAK31 PANC 172342
TAFAKN
TAF
PAKN 172342Z 1800/1824 VRB06KT P6SM OVC100
     FM180600 12011KT P6SM SCT050 BKN080 WS020/15045KT
     FM181000 13015G25KT P6SM SCT025 OVC050 WS020/15045KT
     FM181600 16011KT 4SM -RASN BR SCT005 OVC008
     FM182000 20011KT P6SM SCT007 BKN035=

USA.gov is the U.S. government's official web portal to all federal, state and local government web resources and services.